Time;durP1;ratioP1;P1;durP2;ratioP2;P2;SDS_P1;SDS_P2;PMS_P1;PMS_P2;Temp;Humidity;BMP_temperature;BMP_pressure;BME280_temperature;BME280_humidity;BME280_pressure;Samples;Min_cycle;Max_cycle;Signal;HPM_P1;HPM_P2
2022/04/11 00:00:29;;;;;;;2.97;1.00;;;;;;;17.83;44.69;98810.00;5086133;28;20020;-90
2022/04/11 00:02:54;;;;;;;5.35;1.15;;;;;;;17.80;44.69;98797.84;5086474;28;20025;-89
2022/04/11 00:05:20;;;;;;;3.53;1.00;;;;;;;17.79;44.59;98797.91;5082247;28;20028;-89
2022/04/11 00:07:46;;;;;;;4.53;1.20;;;;;;;17.77;44.84;98797.16;5077255;28;20480;-90
2022/04/11 00:10:11;;;;;;;5.65;1.40;;;;;;;17.77;44.79;98790.09;5078605;28;20036;-90
2022/04/11 00:12:38;;;;;;;4.25;1.25;;;;;;;17.74;44.92;98789.41;5077771;28;20477;-89
2022/04/11 00:15:08;;;;;;;5.38;1.20;;;;;;;17.73;44.74;98796.50;5078853;28;20028;-90
2022/04/11 00:17:34;;;;;;;3.60;0.95;;;;;;;17.73;45.09;98771.91;5077668;28;20035;-91
2022/04/11 00:20:00;;;;;;;6.32;1.30;;;;;;;17.68;45.10;98785.38;5077179;28;20040;-90
2022/04/11 00:22:26;;;;;;;3.63;1.10;;;;;;;17.66;45.40;98766.97;5077769;28;20021;-89
2022/04/11 00:24:52;;;;;;;5.00;1.15;;;;;;;17.68;45.45;98785.38;5077525;28;20021;-90
2022/04/11 00:27:18;;;;;;;7.07;1.48;;;;;;;17.67;45.58;98781.03;5077456;28;20462;-89
2022/04/11 00:29:44;;;;;;;3.83;1.20;;;;;;;17.67;45.78;98778.41;5077106;28;20350;-89
2022/04/11 00:32:10;;;;;;;4.05;1.20;;;;;;;17.64;45.92;98779.41;5077324;28;20032;-89
2022/04/11 00:34:35;;;;;;;3.50;1.00;;;;;;;17.64;45.82;98768.00;5077731;28;20042;-88
2022/04/11 00:37:01;;;;;;;4.20;1.35;;;;;;;17.64;45.95;98768.00;5077127;28;20032;-90
2022/04/11 00:39:27;;;;;;;5.80;1.73;;;;;;;17.65;45.89;98765.28;5077264;28;20035;-89
2022/04/11 00:41:53;;;;;;;5.25;1.60;;;;;;;17.63;45.97;98767.13;5077288;28;20024;-90
2022/04/11 00:44:18;;;;;;;4.72;1.30;;;;;;;17.64;46.24;98765.38;5077246;28;20462;-90
2022/04/11 00:46:44;;;;;;;5.05;1.45;;;;;;;17.64;46.16;98762.72;5077181;28;20020;-89
2022/04/11 00:49:10;;;;;;;4.35;1.40;;;;;;;17.61;46.14;98763.75;5079513;28;20032;-88
2022/04/11 00:51:36;;;;;;;5.18;1.40;;;;;;;17.64;46.29;98745.13;5077098;28;20054;-90
2022/04/11 00:54:03;;;;;;;2.60;0.95;;;;;;;17.64;46.31;98753.03;5076863;28;20097;-88
2022/04/11 00:56:29;;;;;;;5.43;1.33;;;;;;;17.59;46.43;98744.53;5076849;28;20037;-90
2022/04/11 00:58:58;;;;;;;3.78;1.20;;;;;;;17.61;46.60;98747.91;5076996;28;20327;-90
2022/04/11 01:01:23;;;;;;;5.55;1.63;;;;;;;17.60;46.77;98733.03;5076833;28;20039;-89
2022/04/11 01:03:51;;;;;;;4.85;1.23;;;;;;;17.58;47.12;98751.59;5076822;28;20024;-88
2022/04/11 01:06:16;;;;;;;3.03;1.30;;;;;;;17.58;47.33;98732.28;5076546;28;20408;-89
2022/04/11 01:08:42;;;;;;;5.85;1.67;;;;;;;17.60;47.43;98740.94;5077306;28;20017;-90
2022/04/11 01:11:08;;;;;;;6.15;1.40;;;;;;;17.59;47.26;98744.53;5076739;28;20523;-89
2022/04/11 01:13:34;;;;;;;3.83;1.17;;;;;;;17.54;47.39;98742.13;5076483;28;20111;-90
2022/04/11 01:16:04;;;;;;;4.53;1.15;;;;;;;17.54;47.47;98741.31;5076032;28;20021;-88
2022/04/11 01:18:37;;;;;;;4.63;1.30;;;;;;;17.56;47.54;98742.06;5075727;28;20510;-89
2022/04/11 01:21:03;;;;;;;7.45;1.90;;;;;;;17.53;47.43;98743.09;5077381;28;20035;-89
2022/04/11 01:23:29;;;;;;;4.95;1.63;;;;;;;17.55;47.31;98745.63;5076123;28;20481;-90
2022/04/11 01:25:56;;;;;;;5.70;1.20;;;;;;;17.57;47.23;98746.38;5076228;28;20021;-88
2022/04/11 01:28:23;;;;;;;5.95;1.50;;;;;;;17.56;47.67;98723.59;5076222;28;20032;-88
2022/04/11 01:30:54;;;;;;;4.07;1.48;;;;;;;17.54;47.69;98733.41;5076033;28;20115;-88
2022/04/11 01:33:28;;;;;;;3.78;1.30;;;;;;;17.51;47.69;98721.22;5076358;28;20052;-91
2022/04/11 01:35:54;;;;;;;5.68;1.85;;;;;;;17.56;47.66;98720.94;5076252;28;20377;-90
2022/04/11 01:38:20;;;;;;;4.30;1.45;;;;;;;17.55;47.82;98719.25;5076748;28;20107;-89
2022/04/11 01:40:56;;;;;;;6.68;1.60;;;;;;;17.55;47.68;98732.44;5076878;28;20028;-89
2022/04/11 01:43:23;;;;;;;3.25;1.17;;;;;;;17.54;47.82;98723.69;5076726;28;20128;-88
2022/04/11 01:45:50;;;;;;;4.60;1.50;;;;;;;17.58;47.74;98722.56;5077007;28;20024;-89
2022/04/11 01:48:16;;;;;;;3.42;1.17;;;;;;;17.56;47.76;98703.34;5077294;28;20470;-89
2022/04/11 01:50:42;;;;;;;5.90;1.60;;;;;;;17.55;48.07;98708.72;5076898;28;20016;-90
2022/04/11 01:53:10;;;;;;;6.03;1.48;;;;;;;17.54;47.98;98715.75;5078466;28;20020;-89
2022/04/11 01:55:37;;;;;;;4.28;1.40;;;;;;;17.53;48.00;98708.78;5077904;28;20041;-91
2022/04/11 01:58:04;;;;;;;2.40;1.20;;;;;;;17.52;48.00;98712.38;5078513;28;20029;-90
2022/04/11 02:00:30;;;;;;;4.22;1.23;;;;;;;17.52;48.22;98711.50;5078712;28;20039;-90
2022/04/11 02:02:59;;;;;;;4.22;1.48;;;;;;;17.51;47.98;98707.19;5078544;28;20106;-90
2022/04/11 02:05:26;;;;;;;6.53;1.63;;;;;;;17.53;48.16;98708.78;5078730;28;20102;-89
2022/04/11 02:07:52;;;;;;;4.00;1.35;;;;;;;17.53;48.04;98708.78;5079168;28;20058;-90
2022/04/11 02:10:17;;;;;;;4.07;1.42;;;;;;;17.55;47.97;98704.28;5079710;28;20066;-90
2022/04/11 02:12:43;;;;;;;3.10;1.17;;;;;;;17.53;48.31;98705.31;5081784;28;20033;-90
2022/04/11 02:15:10;;;;;;;4.80;1.48;;;;;;;17.54;48.04;98709.66;5079681;28;20035;-91
2022/04/11 02:17:35;;;;;;;4.55;1.45;;;;;;;17.55;48.39;98711.34;5079921;28;20040;-90
2022/04/11 02:20:01;;;;;;;3.75;1.35;;;;;;;17.58;48.12;98711.19;5084158;28;20048;-89
2022/04/11 02:22:27;;;;;;;7.07;1.67;;;;;;;17.53;48.24;98697.41;5083333;28;20036;-89
2022/04/11 02:24:53;;;;;;;4.38;1.60;;;;;;;17.53;48.13;98697.41;5085514;28;20065;-90
2022/04/11 02:27:18;;;;;;;5.80;2.15;;;;;;;17.53;48.19;98697.41;5081333;28;20027;-88
2022/04/11 02:29:44;;;;;;;3.90;1.42;;;;;;;17.51;48.25;98699.28;5086402;28;20055;-90
2022/04/11 02:32:11;;;;;;;4.63;1.48;;;;;;;17.51;48.47;98691.34;5087442;28;20025;-90
2022/04/11 02:34:37;;;;;;;4.97;1.33;;;;;;;17.48;48.56;98694.19;5087362;28;20062;-88
2022/04/11 02:37:03;;;;;;;6.63;1.60;;;;;;;17.49;48.46;98706.44;5079149;28;20024;-89
2022/04/11 02:39:29;;;;;;;6.88;1.30;;;;;;;17.50;48.57;98697.56;5078446;28;20025;-89
2022/04/11 02:41:54;;;;;;;4.60;1.70;;;;;;;17.48;48.48;98688.91;5077691;28;20035;-88
2022/04/11 02:44:20;;;;;;;6.13;1.80;;;;;;;17.47;48.73;98687.22;5077705;28;20020;-89
2022/04/11 02:46:47;;;;;;;4.10;1.23;;;;;;;17.47;48.58;98692.50;5078091;28;20366;-89
2022/04/11 02:49:13;;;;;;;5.65;1.58;;;;;;;17.45;48.81;98689.94;5062990;28;20024;-88
2022/04/11 02:51:38;;;;;;;4.45;1.60;;;;;;;17.45;48.85;98682.84;5077719;28;20339;-90
2022/04/11 02:54:07;;;;;;;4.90;1.48;;;;;;;17.44;48.79;98685.59;5077756;28;20074;-88
2022/04/11 02:56:36;;;;;;;4.18;1.45;;;;;;;17.45;48.88;98680.22;5076903;28;20052;-90
2022/04/11 02:59:02;;;;;;;7.25;1.50;;;;;;;17.48;48.68;98694.19;5078860;28;20025;-88
2022/04/11 03:01:28;;;;;;;4.88;1.65;;;;;;;17.44;48.72;98686.44;5078355;28;20039;-90
2022/04/11 03:03:53;;;;;;;8.63;2.03;;;;;;;17.47;48.66;98687.22;5076985;28;20024;-89
2022/04/11 03:06:19;;;;;;;4.70;1.35;;;;;;;17.47;48.90;98684.59;5082222;28;20020;-90
2022/04/11 03:08:47;;;;;;;4.40;1.60;;;;;;;17.41;48.82;98689.28;5080974;28;20074;-90
2022/04/11 03:11:13;;;;;;;6.22;1.85;;;;;;;17.44;48.84;98681.16;5081441;28;20043;-90
2022/04/11 03:13:38;;;;;;;7.13;2.10;;;;;;;17.45;49.04;98689.94;5083367;28;20020;-89
2022/04/11 03:16:07;;;;;;;6.80;2.22;;;;;;;17.44;48.82;98698.78;5082873;28;20016;-91
2022/04/11 03:18:32;;;;;;;5.28;1.42;;;;;;;17.44;48.79;98696.16;5083259;28;20478;-89
2022/04/11 03:20:58;;;;;;;5.72;1.65;;;;;;;17.45;49.19;98692.59;5086780;28;20063;-90
2022/04/11 03:23:23;;;;;;;5.75;1.52;;;;;;;17.44;48.57;98691.72;5083232;28;20025;-88
2022/04/11 03:25:49;;;;;;;5.38;1.50;;;;;;;17.45;48.60;98701.31;5075378;28;20027;-90
2022/04/11 03:28:15;;;;;;;6.90;1.77;;;;;;;17.45;48.85;98705.75;5075206;28;20047;-90
2022/04/11 03:30:40;;;;;;;5.50;1.52;;;;;;;17.44;48.74;98704.91;5075442;28;20055;-90
2022/04/11 03:33:06;;;;;;;5.90;1.70;;;;;;;17.46;48.70;98699.53;5076447;28;20024;-89
2022/04/11 03:35:32;;;;;;;5.50;1.70;;;;;;;17.44;48.99;98699.63;5075576;28;20182;-89
2022/04/11 03:37:57;;;;;;;5.65;1.80;;;;;;;17.47;48.75;98700.41;5075569;28;20031;-88
2022/04/11 03:40:23;;;;;;;5.93;1.65;;;;;;;17.43;48.87;98704.97;5075888;28;20027;-89
2022/04/11 03:42:49;;;;;;;5.50;1.70;;;;;;;17.45;48.76;98703.97;5078352;28;20068;-90
2022/04/11 03:45:14;;;;;;;5.15;1.45;;;;;;;17.47;48.65;98703.03;5079134;28;20040;-90
2022/04/11 03:47:40;;;;;;;5.85;1.55;;;;;;;17.43;48.65;98695.28;5079719;28;20025;-89
2022/04/11 03:50:06;;;;;;;4.82;1.33;;;;;;;17.42;48.86;98693.59;5078772;28;20429;-89
2022/04/11 03:52:31;;;;;;;5.60;1.50;;;;;;;17.41;48.68;98699.81;5078990;28;20081;-89
2022/04/11 03:54:57;;;;;;;6.22;1.50;;;;;;;17.42;48.57;98693.59;5078305;28;20033;-89
2022/04/11 03:57:23;;;;;;;4.78;1.60;;;;;;;17.41;48.89;98685.78;5078495;28;20020;-89
2022/04/11 03:59:48;;;;;;;5.22;1.63;;;;;;;17.43;48.58;98686.53;5078677;28;20446;-89
2022/04/11 04:02:14;;;;;;;4.32;1.65;;;;;;;17.40;48.76;98670.91;5078219;28;20028;-90
2022/04/11 04:04:40;;;;;;;5.13;1.60;;;;;;;17.37;48.77;98677.19;5080378;28;20028;-89
2022/04/11 04:07:05;;;;;;;6.68;1.90;;;;;;;17.40;48.69;98679.66;5078893;28;20028;-89
2022/04/11 04:09:31;;;;;;;6.20;1.73;;;;;;;17.41;48.72;98672.59;5078327;28;20050;-88
2022/04/11 04:11:57;;;;;;;6.45;1.70;;;;;;;17.37;48.57;98682.47;5079281;28;20043;-89
2022/04/11 04:14:22;;;;;;;5.90;1.90;;;;;;;17.35;48.72;98679.09;5081211;28;20425;-89
2022/04/11 04:16:49;;;;;;;8.25;1.70;;;;;;;17.39;48.74;98675.31;5080791;28;20404;-90
2022/04/11 04:19:15;;;;;;;5.30;1.67;;;;;;;17.35;48.57;98668.53;5081440;28;20108;-91
2022/04/11 04:21:40;;;;;;;4.18;1.30;;;;;;;17.36;48.71;98670.22;5080123;28;20111;-89
2022/04/11 04:24:06;;;;;;;6.25;1.48;;;;;;;17.37;48.72;98682.47;5080544;28;20421;-90
2022/04/11 04:26:32;;;;;;;5.45;1.88;;;;;;;17.33;48.81;98685.38;5081179;28;20012;-87
2022/04/11 04:28:58;;;;;;;7.68;1.73;;;;;;;17.32;48.87;98684.53;5080667;28;20024;-88
2022/04/11 04:31:23;;;;;;;5.15;1.35;;;;;;;17.37;48.78;98679.84;5080522;28;20331;-89
2022/04/11 04:33:49;;;;;;;5.05;1.70;;;;;;;17.33;48.77;98680.94;5080507;28;20021;-88
2022/04/11 04:36:15;;;;;;;6.35;1.60;;;;;;;17.34;48.59;98669.44;5081283;28;20025;-88
2022/04/11 04:38:40;;;;;;;8.75;1.90;;;;;;;17.37;48.79;98666.66;5082614;28;20473;-89
2022/04/11 04:41:06;;;;;;;5.72;1.48;;;;;;;17.33;48.61;98669.56;5082661;28;20100;-90
2022/04/11 04:43:31;;;;;;;7.10;1.63;;;;;;;17.32;48.64;98658.16;5084133;28;20361;-89
2022/04/11 04:45:57;;;;;;;4.38;1.55;;;;;;;17.33;48.66;98665.13;5084522;28;20020;-90
2022/04/11 04:48:23;;;;;;;6.55;1.52;;;;;;;17.29;48.90;98666.25;5085782;28;20055;-90
2022/04/11 04:50:48;;;;;;;5.85;2.15;;;;;;;17.28;48.75;98661.91;5086604;28;20048;-89
2022/04/11 04:53:14;;;;;;;6.72;1.40;;;;;;;17.31;48.90;98664.38;5084828;28;20048;-90
2022/04/11 04:55:40;;;;;;;6.07;1.67;;;;;;;17.31;48.81;98656.47;5085117;28;20020;-89
2022/04/11 04:58:05;;;;;;;5.15;1.48;;;;;;;17.29;48.83;98666.25;5086947;28;20434;-90
2022/04/11 05:00:31;;;;;;;5.63;1.85;;;;;;;17.31;48.72;98659.97;5087261;28;20032;-89
2022/04/11 05:02:57;;;;;;;5.10;1.45;;;;;;;17.27;48.72;98668.13;5086668;28;20024;-89
2022/04/11 05:05:23;;;;;;;5.55;1.33;;;;;;;17.33;48.76;98664.28;5086641;28;20024;-90
2022/04/11 05:07:48;;;;;;;4.85;1.50;;;;;;;17.27;48.77;98662.84;5079081;28;20035;-91
2022/04/11 05:10:14;;;;;;;5.65;1.45;;;;;;;17.30;48.53;98665.31;5080539;28;20446;-90
2022/04/11 05:12:45;;;;;;;6.80;2.08;;;;;;;17.29;48.83;98674.16;5078562;28;20032;-89
2022/04/11 05:15:12;;;;;;;5.28;1.67;;;;;;;17.28;48.74;98672.44;5077163;28;20035;-89
2022/04/11 05:17:38;;;;;;;6.90;1.83;;;;;;;17.33;48.67;98670.41;5076454;28;20054;-88
2022/04/11 05:20:06;;;;;;;5.40;1.75;;;;;;;17.32;48.81;98668.69;5076271;28;20058;-89
2022/04/11 05:22:32;;;;;;;5.65;1.98;;;;;;;17.31;48.78;98672.28;5076773;28;20024;-88
2022/04/11 05:24:58;;;;;;;5.88;1.50;;;;;;;17.34;48.71;98661.53;5078484;28;20031;-89
2022/04/11 05:27:24;;;;;;;5.55;1.48;;;;;;;17.35;48.56;98670.31;5076567;28;20039;-88
2022/04/11 05:29:49;;;;;;;5.40;1.50;;;;;;;17.30;48.63;98670.59;5076708;28;20034;-88
2022/04/11 05:32:15;;;;;;;8.40;2.00;;;;;;;17.39;48.52;98675.31;5076958;28;20031;-88
2022/04/11 05:34:44;;;;;;;7.65;1.70;;;;;;;17.35;48.71;98671.16;5076724;28;20036;-88
2022/04/11 05:37:11;;;;;;;4.10;1.27;;;;;;;17.36;48.49;98672.00;5076585;28;20504;-86
2022/04/11 05:39:36;;;;;;;6.80;1.70;;;;;;;17.36;48.62;98675.50;5077921;28;20103;-87
2022/04/11 05:42:02;;;;;;;6.55;1.98;;;;;;;17.34;48.64;98672.09;5077675;28;20052;-87
2022/04/11 05:44:28;;;;;;;6.40;1.98;;;;;;;17.30;48.52;98676.69;5077578;28;20028;-88
2022/04/11 05:46:53;;;;;;;4.53;1.45;;;;;;;17.34;48.65;98680.00;5077307;28;20513;-88
2022/04/11 05:49:20;;;;;;;7.13;1.50;;;;;;;17.31;48.56;98682.81;5076633;28;20063;-87
2022/04/11 05:51:47;;;;;;;5.70;1.40;;;;;;;17.30;48.63;98681.97;5077733;28;20119;-88
2022/04/11 05:54:12;;;;;;;8.57;2.03;;;;;;;17.30;48.66;98687.25;5078252;28;20025;-87
2022/04/11 05:56:38;;;;;;;6.28;2.00;;;;;;;17.33;48.72;98688.84;5076823;28;20029;-87
2022/04/11 05:59:04;;;;;;;6.30;1.65;;;;;;;17.29;48.63;98690.00;5076544;28;20020;-88
2022/04/11 06:01:30;;;;;;;8.65;1.92;;;;;;;17.31;48.58;98694.25;5077614;28;20039;-87
2022/04/11 06:03:57;;;;;;;7.03;1.90;;;;;;;17.35;48.77;98704.59;5077140;28;20035;-87
2022/04/11 06:06:23;;;;;;;4.47;1.80;;;;;;;17.33;48.60;98702.03;5076773;28;20020;-87
2022/04/11 06:08:48;;;;;;;6.95;1.48;;;;;;;17.32;48.40;98700.34;5077460;28;20024;-88
2022/04/11 06:11:14;;;;;;;6.43;2.13;;;;;;;17.32;48.57;98700.34;5077546;28;20032;-88
2022/04/11 06:13:45;;;;;;;8.25;1.75;;;;;;;17.33;48.46;98694.13;5077167;28;20106;-88
2022/04/11 06:16:14;;;;;;;6.03;1.90;;;;;;;17.35;48.73;98700.19;5078271;28;20025;-88
2022/04/11 06:18:40;;;;;;;4.60;1.48;;;;;;;17.34;48.69;98703.72;5079610;28;20048;-88
2022/04/11 06:21:06;;;;;;;5.57;1.67;;;;;;;17.32;48.45;98700.34;5078216;28;20024;-88
2022/04/11 06:23:32;;;;;;;6.43;1.65;;;;;;;17.31;48.76;98709.19;5077236;28;20174;-87
2022/04/11 06:25:59;;;;;;;5.40;1.35;;;;;;;17.30;48.88;98704.88;5078767;28;20054;-87
2022/04/11 06:28:25;;;;;;;5.05;1.70;;;;;;;17.30;48.69;98696.97;5077186;28;20028;-88
2022/04/11 06:30:50;;;;;;;5.03;1.60;;;;;;;17.31;48.73;98709.19;5076926;28;20027;-86
2022/04/11 06:33:18;;;;;;;5.10;1.85;;;;;;;17.30;48.60;98702.22;5076935;28;20044;-87
2022/04/11 06:35:44;;;;;;;6.57;1.60;;;;;;;17.27;48.81;98702.41;5076508;28;20089;-89
2022/04/11 06:38:10;;;;;;;5.40;1.58;;;;;;;17.27;49.17;98702.41;5076748;28;20028;-89
2022/04/11 06:40:35;;;;;;;4.93;1.58;;;;;;;17.26;48.92;98705.97;5076621;28;20107;-88
2022/04/11 06:43:01;;;;;;;6.60;1.50;;;;;;;17.27;48.90;98707.66;5076645;28;20444;-87
2022/04/11 06:45:26;;;;;;;9.55;2.05;;;;;;;17.27;49.14;98710.31;5076313;28;20024;-88
2022/04/11 06:47:52;;;;;;;5.10;1.85;;;;;;;17.25;49.26;98714.81;5075865;28;20025;-88
2022/04/11 06:50:18;;;;;;;7.35;1.50;;;;;;;17.26;48.99;98712.09;5078716;28;20039;-88
2022/04/11 06:52:43;;;;;;;5.28;1.55;;;;;;;17.25;48.93;98714.81;5076867;28;20032;-89
2022/04/11 06:55:09;;;;;;;6.10;1.35;;;;;;;17.25;48.97;98713.03;5076658;28;20099;-88
2022/04/11 06:57:35;;;;;;;4.32;1.20;;;;;;;17.28;49.24;98719.91;5078210;28;20588;-87
2022/04/11 07:00:01;;;;;;;4.57;1.25;;;;;;;17.28;49.08;98731.31;5077422;28;20025;-88
2022/04/11 07:02:27;;;;;;;3.33;1.05;;;;;;;17.28;49.00;98730.44;5078126;28;20473;-87
2022/04/11 07:04:53;;;;;;;6.38;1.58;;;;;;;17.29;49.08;98732.19;5078653;28;20052;-89
2022/04/11 07:07:19;;;;;;;4.43;1.42;;;;;;;17.29;49.29;98722.47;5078089;28;20416;-88
2022/04/11 07:09:46;;;;;;;4.47;1.48;;;;;;;17.30;49.38;98733.88;5079279;28;20400;-89
2022/04/11 07:12:12;;;;;;;5.20;1.65;;;;;;;17.30;49.42;98725.97;5078481;28;20024;-87
2022/04/11 07:14:37;;;;;;;4.22;1.13;;;;;;;17.29;49.56;98724.28;5078484;28;20090;-88
2022/04/11 07:17:04;;;;;;;7.55;1.63;;;;;;;17.33;49.40;98723.13;5078761;28;20024;-88
2022/04/11 07:19:30;;;;;;;6.55;1.50;;;;;;;17.33;49.70;98722.31;5081457;28;20044;-89
2022/04/11 07:21:55;;;;;;;6.30;1.40;;;;;;;17.33;49.38;98717.84;5083432;28;20054;-89
2022/04/11 07:24:21;;;;;;;5.35;1.27;;;;;;;17.35;49.51;98710.72;5083433;28;20040;-90
2022/04/11 07:26:46;;;;;;;5.07;1.63;;;;;;;17.38;49.66;98717.63;5084742;28;20446;-89
2022/04/11 07:29:12;;;;;;;8.75;2.05;;;;;;;17.39;49.67;98725.41;5084482;28;20474;-89
2022/04/11 07:31:38;;;;;;;5.40;1.40;;;;;;;17.41;49.84;98723.56;5086523;28;20484;-88
2022/04/11 07:34:03;;;;;;;8.13;1.70;;;;;;;17.45;49.64;98724.22;5083567;28;20024;-90
2022/04/11 07:36:30;;;;;;;6.80;1.88;;;;;;;17.47;49.81;98734.69;5080142;28;20043;-90
2022/04/11 07:38:56;;;;;;;6.90;1.65;;;;;;;17.49;49.55;98724.91;5078567;28;20036;-87
2022/04/11 07:41:23;;;;;;;5.40;1.40;;;;;;;17.52;49.69;98719.44;5078706;28;20082;-87
2022/04/11 07:43:48;;;;;;;4.15;1.20;;;;;;;17.54;49.50;98730.75;5078803;28;20040;-87
2022/04/11 07:46:14;;;;;;;5.97;1.50;;;;;;;17.55;49.48;98732.44;5078767;28;20027;-88
2022/04/11 07:48:40;;;;;;;4.45;1.27;;;;;;;17.56;49.51;98734.16;5078956;28;20024;-88
2022/04/11 07:51:05;;;;;;;4.63;1.30;;;;;;;17.57;49.68;98741.13;5078348;28;20021;-87
2022/04/11 07:53:31;;;;;;;4.65;1.50;;;;;;;17.59;49.76;98739.25;5078075;28;20028;-89
2022/04/11 07:55:57;;;;;;;6.70;1.63;;;;;;;17.62;49.58;98743.50;5080332;28;20029;-89
2022/04/11 07:58:23;;;;;;;5.20;1.40;;;;;;;17.62;50.00;98748.78;5078973;28;20434;-88
2022/04/11 08:00:51;;;;;;;6.32;1.75;;;;;;;17.62;49.98;98752.25;5077751;28;20024;-88
2022/04/11 08:03:17;;;;;;;5.70;1.55;;;;;;;17.64;49.52;98746.91;5077662;28;20044;-88
2022/04/11 08:05:44;;;;;;;7.88;1.75;;;;;;;17.64;49.24;98747.75;5077694;28;20035;-89
2022/04/11 08:08:10;;;;;;;5.88;1.50;;;;;;;17.65;49.36;98754.72;5077939;28;20028;-88
2022/04/11 08:10:35;;;;;;;6.40;1.63;;;;;;;17.68;49.46;98751.91;5078243;28;20050;-88
2022/04/11 08:13:01;;;;;;;5.50;1.67;;;;;;;17.70;49.08;98752.69;5077694;28;20021;-88
2022/04/11 08:15:29;;;;;;;4.95;1.55;;;;;;;17.73;48.65;98751.66;5077565;28;20159;-89
2022/04/11 08:17:55;;;;;;;5.25;1.38;;;;;;;17.74;48.79;98747.19;5078039;28;20086;-88
2022/04/11 08:20:22;;;;;;;5.45;1.27;;;;;;;17.77;48.63;98736.47;5078262;28;20059;-87
2022/04/11 08:22:48;;;;;;;7.97;1.73;;;;;;;17.81;48.42;98730.06;5078741;28;20079;-88
2022/04/11 08:25:16;;;;;;;6.65;1.88;;;;;;;17.82;48.53;98739.69;5077856;28;20048;-90
2022/04/11 08:27:42;;;;;;;6.60;1.40;;;;;;;17.84;48.62;98751.00;5079018;28;20024;-89
2022/04/11 08:30:09;;;;;;;4.97;1.83;;;;;;;17.87;48.43;98748.16;5077521;28;20104;-89
2022/04/11 08:32:47;;;;;;;4.07;1.17;;;;;;;17.89;48.28;98761.28;5078304;28;20029;-88
2022/04/11 08:35:14;;;;;;;3.75;1.05;;;;;;;17.92;48.25;98755.84;5077085;28;20095;-88
2022/04/11 08:37:42;;;;;;;4.55;1.25;;;;;;;17.91;48.35;98765.53;5077142;28;20420;-88
2022/04/11 08:40:10;;;;;;;3.90;1.35;;;;;;;17.94;48.15;98765.38;5077275;28;20089;-89
2022/04/11 08:42:38;;;;;;;5.25;1.30;;;;;;;17.97;48.23;98761.69;5077443;28;20036;-87
2022/04/11 08:45:04;;;;;;;3.08;1.00;;;;;;;17.97;48.04;98764.34;5077576;28;20029;-89
2022/04/11 08:47:29;;;;;;;3.17;0.90;;;;;;;17.97;48.45;98759.88;5078229;28;20028;-86
2022/04/11 08:49:55;;;;;;;4.47;1.17;;;;;;;18.00;47.89;98768.59;5077874;28;20127;-88
2022/04/11 08:52:21;;;;;;;6.85;2.05;;;;;;;18.02;47.89;98766.69;5077736;28;20028;-89
2022/04/11 08:54:48;;;;;;;5.43;1.33;;;;;;;18.04;47.77;98767.44;5077387;28;20028;-88
2022/04/11 08:57:13;;;;;;;5.20;1.25;;;;;;;18.06;47.72;98773.53;5077487;28;20020;-89
2022/04/11 08:59:39;;;;;;;5.22;1.60;;;;;;;18.09;47.75;98778.59;5078891;28;20024;-89
2022/04/11 09:02:11;;;;;;;4.22;1.40;;;;;;;18.12;47.61;98773.16;5077835;28;20025;-89
2022/04/11 09:04:56;;;;;;;4.70;1.23;;;;;;;18.13;47.49;98764.28;5078589;28;20105;-88
2022/04/11 09:07:22;;;;;;;4.88;1.63;;;;;;;18.14;47.49;98768.63;5078414;28;20020;-88
2022/04/11 09:09:48;;;;;;;5.50;1.55;;;;;;;18.16;47.38;98784.38;5078536;28;20024;-88
2022/04/11 09:12:16;;;;;;;3.33;1.27;;;;;;;18.16;47.48;98779.94;5078147;28;20031;-88
2022/04/11 09:14:42;;;;;;;4.47;1.65;;;;;;;18.18;46.85;98778.06;5078368;28;20470;-86
2022/04/11 09:17:11;;;;;;;5.30;1.63;;;;;;;18.18;47.41;98783.34;5079366;28;20470;-88
2022/04/11 09:19:38;;;;;;;5.05;1.15;;;;;;;18.20;47.19;98770.91;5077777;28;20082;-89
2022/04/11 09:22:07;;;;;;;3.80;1.20;;;;;;;18.20;47.05;98770.91;5076736;28;20100;-88
2022/04/11 09:24:33;;;;;;;5.43;1.23;;;;;;;18.20;47.35;98765.63;5076241;28;20036;-89
2022/04/11 09:26:59;;;;;;;4.10;1.10;;;;;;;18.24;47.31;98774.19;5076309;28;20020;-89
2022/04/11 09:29:35;;;;;;;4.97;1.40;;;;;;;18.25;46.69;98767.97;5076761;28;20074;-88
2022/04/11 09:32:05;;;;;;;3.97;1.38;;;;;;;18.27;47.16;98754.69;5079228;28;20025;-89
2022/04/11 09:34:31;;;;;;;5.85;1.65;;;;;;;18.29;46.54;98758.06;5079385;28;20035;-90
2022/04/11 09:36:58;;;;;;;3.10;0.93;;;;;;;18.31;46.70;98772.03;5081512;28;20119;-89
2022/04/11 09:39:28;;;;;;;4.55;1.38;;;;;;;18.32;47.24;98742.03;5081419;28;20035;-88
2022/04/11 09:41:55;;;;;;;3.83;1.55;;;;;;;18.33;46.63;98764.88;5080604;28;20508;-88
2022/04/11 09:44:31;;;;;;;4.70;1.30;;;;;;;18.34;46.46;98774.47;5080685;28;20067;-89
2022/04/11 09:47:06;;;;;;;5.90;1.45;;;;;;;18.36;46.40;98772.63;5080115;28;20059;-88
2022/04/11 09:49:33;;;;;;;5.78;1.38;;;;;;;18.38;46.55;98768.06;5080671;28;20090;-90
2022/04/11 09:52:09;;;;;;;4.18;1.20;;;;;;;18.40;46.37;98768.00;5080932;28;20048;-89
2022/04/11 09:54:37;;;;;;;5.30;1.50;;;;;;;18.41;46.53;98762.63;5081286;28;20066;-89
2022/04/11 09:57:04;;;;;;;3.78;1.02;;;;;;;18.42;46.39;98768.75;5082497;28;20036;-89
2022/04/11 09:59:30;;;;;;;5.22;1.15;;;;;;;18.43;46.53;98771.28;5081777;28;20029;-90
2022/04/11 10:01:57;;;;;;;5.18;1.20;;;;;;;18.45;46.44;98761.47;5081744;28;20130;-87
2022/04/11 10:04:24;;;;;;;5.43;1.40;;;;;;;18.46;46.18;98763.16;5083640;28;20024;-90
2022/04/11 10:06:50;;;;;;;6.75;1.33;;;;;;;18.48;46.41;98777.16;5082316;28;20043;-90
2022/04/11 10:09:17;;;;;;;5.90;1.27;;;;;;;18.48;46.28;98766.59;5077153;28;20024;-88
2022/04/11 10:11:44;;;;;;;5.13;1.33;;;;;;;18.50;46.26;98762.03;5076828;28;20063;-88
2022/04/11 10:14:23;;;;;;;4.88;1.23;;;;;;;18.50;46.06;98766.50;5076192;28;20122;-89
2022/04/11 10:17:02;;;;;;;4.32;1.60;;;;;;;18.53;46.54;98776.84;5078964;28;20454;-91
2022/04/11 10:19:33;;;;;;;4.57;1.20;;;;;;;18.53;46.08;98761.00;5079733;28;20054;-89
2022/04/11 10:22:26;;;;;;;5.63;1.52;;;;;;;18.57;46.08;98756.38;5080514;28;20030;-88
2022/04/11 10:25:02;;;;;;;5.03;1.17;;;;;;;18.57;46.35;98775.72;5075336;28;20056;-88
2022/04/11 10:27:29;;;;;;;2.95;1.10;;;;;;;18.59;46.12;98765.06;5076530;28;20135;-87
2022/04/11 10:29:56;;;;;;;5.47;1.50;;;;;;;18.61;46.17;98768.47;5077479;28;20112;-88
2022/04/11 10:32:24;;;;;;;4.70;1.15;;;;;;;18.61;46.29;98768.47;5076854;28;20021;-89
2022/04/11 10:35:00;;;;;;;3.70;1.35;;;;;;;18.62;46.08;98764.88;5076548;28;20020;-88
2022/04/11 10:37:29;;;;;;;5.97;1.25;;;;;;;18.64;46.54;98758.53;5079045;28;20035;-88
2022/04/11 10:40:16;;;;;;;4.63;1.23;;;;;;;18.65;46.26;98775.25;5077895;28;20035;-89
2022/04/11 10:43:00;;;;;;;5.20;1.30;;;;;;;18.67;45.97;98757.50;5076681;28;20021;-90
2022/04/11 10:46:05;;;;;;;3.60;1.13;;;;;;;18.68;46.14;98748.63;5096954;28;20019;-88
2022/04/11 10:48:56;;;;;;;5.13;1.63;;;;;;;18.72;46.24;98747.50;5112660;28;20032;-88
2022/04/11 10:51:22;;;;;;;5.57;1.40;;;;;;;18.74;46.55;98755.34;5095512;28;20016;-87
2022/04/11 10:54:17;;;;;;;5.05;1.42;;;;;;;18.74;46.55;98752.69;5099658;28;20093;-89
2022/04/11 10:56:55;;;;;;;5.18;1.35;;;;;;;18.75;46.25;98744.66;5100702;28;20046;-88
2022/04/11 10:59:28;;;;;;;4.80;1.55;;;;;;;18.77;46.38;98737.50;5105475;28;20019;-89
2022/04/11 11:01:59;;;;;;;5.20;1.58;;;;;;;18.78;46.11;98739.19;5112302;28;20055;-89
2022/04/11 11:04:28;;;;;;;4.95;1.63;;;;;;;18.79;46.14;98740.88;5127816;28;20015;-88
2022/04/11 11:07:38;;;;;;;5.45;1.55;;;;;;;18.79;46.06;98730.31;5126401;28;20097;-89
2022/04/11 11:10:05;;;;;;;5.60;1.38;;;;;;;18.82;46.30;98734.53;5042874;28;20097;-91
2022/04/11 11:12:33;;;;;;;5.40;1.40;;;;;;;18.82;46.20;98739.84;5070936;28;20036;-89
2022/04/11 11:15:26;;;;;;;5.30;1.20;;;;;;;18.85;46.17;98733.50;5072450;28;20031;-90
2022/04/11 11:17:56;;;;;;;6.18;1.40;;;;;;;18.86;46.30;98740.47;5081222;28;20039;-90
2022/04/11 11:20:23;;;;;;;6.60;1.45;;;;;;;18.89;46.49;98730.56;5084992;28;20390;-91
2022/04/11 11:23:20;;;;;;;6.13;1.55;;;;;;;18.89;46.84;98745.59;5086912;28;20044;-90
2022/04/11 11:25:48;;;;;;;7.45;2.47;;;;;;;18.90;46.42;98732.25;5099640;28;20036;-89
2022/04/11 11:28:13;;;;;;;5.80;1.85;;;;;;;18.93;46.10;98736.50;5087803;28;20029;-92
2022/04/11 11:30:39;;;;;;;6.03;1.30;;;;;;;18.93;46.47;98736.50;5087563;28;20062;-91
2022/04/11 11:33:16;;;;;;;6.28;1.48;;;;;;;18.93;46.41;98733.84;5089839;28;20052;-90
2022/04/11 11:35:49;;;;;;;4.60;1.40;;;;;;;18.97;46.13;98731.84;5111843;28;20037;-91